Consort, Canada
Current Conditions -  °F | °C
As of 3:00 PM on Thursday 27 Nov 2014 (Local Time) from CYKY Reporting Station
Blowing Snow Blowing Snow  
Wind Chill: -3°   Ceiling: 800
Heat Index: 16°   Visibility: 10mi
Dew Point: 12°   Wind: 24mph
Humidity: 86%   Direction: 60°ENE
Pressure: 29.83"   Gusts: NA
Location:  52.02°N, 110.8°W
Report Text: CYKY 272200Z 06021KT 10SM DRSN OVC008 M09/M11 A2983 RMK SC8 SLP150
Loading
Personal Weather Stations






























Interactive Weather Map New forecast layout! Learn more

10-Day Weather Forecast

Advertisements
Track Severe Weather on mobile